createdAt,value
2022-12-20T00:01:28.588Z,92.39
2022-12-20T00:03:58.077Z,92.23
2022-12-20T00:06:26.199Z,92.16
2022-12-20T00:08:59.505Z,92.32
2022-12-20T00:11:28.874Z,92.56
2022-12-20T00:13:56.174Z,92.83
2022-12-20T00:16:54.708Z,92.88
2022-12-20T00:19:26.777Z,93.01
2022-12-20T00:21:53.769Z,92.82
2022-12-20T00:27:37.754Z,92.58
2022-12-20T00:30:11.591Z,92.56
2022-12-20T00:32:45.636Z,92.72
2022-12-20T00:35:14.124Z,92.84
2022-12-20T00:37:41.804Z,92.59
2022-12-20T00:40:09.988Z,92.51
2022-12-20T00:42:37.727Z,92.47
2022-12-20T00:45:06.160Z,92.51
2022-12-20T00:47:33.851Z,92.72
2022-12-20T00:50:01.904Z,92.34
2022-12-20T00:52:29.745Z,92.49
2022-12-20T00:55:04.223Z,92.39
2022-12-20T00:57:31.747Z,92.31
2022-12-20T00:59:59.823Z,92.50
2022-12-20T01:05:24.907Z,92.43
2022-12-20T01:07:58.113Z,92.18
2022-12-20T01:10:30.938Z,92.23
2022-12-20T01:13:03.763Z,92.32
2022-12-20T01:15:36.883Z,91.95
2022-12-20T01:18:08.965Z,92.03
2022-12-20T01:20:35.737Z,92.01
2022-12-20T01:23:03.917Z,92.01
2022-12-20T01:25:31.704Z,92.22
2022-12-20T01:28:04.125Z,92.10
2022-12-20T01:30:31.739Z,92.18
2022-12-20T01:33:03.837Z,92.34
2022-12-20T01:35:31.820Z,92.11
2022-12-20T01:38:04.869Z,92.02
2022-12-20T01:40:33.798Z,92.34
2022-12-20T01:43:01.741Z,92.41
2022-12-20T01:45:33.862Z,92.33
2022-12-20T01:50:53.911Z,92.15
2022-12-20T01:53:28.059Z,92.19
2022-12-20T01:55:55.868Z,92.24
2022-12-20T01:58:23.887Z,92.19
2022-12-20T02:00:52.025Z,92.20
2022-12-20T02:03:20.137Z,92.36
2022-12-20T02:05:47.940Z,92.28
2022-12-20T02:08:19.364Z,92.39
2022-12-20T02:11:09.675Z,92.49
2022-12-20T02:13:59.113Z,92.27
2022-12-20T02:16:29.665Z,92.18
2022-12-20T02:19:21.727Z,92.27
2022-12-20T02:22:05.763Z,92.11
2022-12-20T02:24:58.171Z,92.50
2022-12-20T02:27:41.423Z,92.54
2022-12-20T02:33:14.399Z,92.20
2022-12-20T02:35:42.681Z,92.20
2022-12-20T02:38:38.244Z,92.41
2022-12-20T02:41:28.450Z,92.62
2022-12-20T02:44:23.935Z,92.60
2022-12-20T02:46:58.543Z,92.46
2022-12-20T02:52:48.168Z,92.52
2022-12-20T02:55:16.138Z,92.46
2022-12-20T02:58:27.903Z,92.42
2022-12-20T03:01:04.287Z,92.83
2022-12-20T03:03:38.033Z,92.70
2022-12-20T03:06:11.114Z,92.51
2022-12-20T03:08:39.724Z,92.58
2022-12-20T03:11:31.822Z,92.60
2022-12-20T03:13:59.872Z,92.43
2022-12-20T03:16:27.787Z,92.36
2022-12-20T03:19:00.727Z,92.32
2022-12-20T03:21:27.708Z,92.55
2022-12-20T03:23:55.754Z,92.60
2022-12-20T03:26:27.750Z,92.56
2022-12-20T03:28:59.689Z,92.84
2022-12-20T03:31:51.735Z,92.96
2022-12-20T03:34:19.730Z,92.99
2022-12-20T03:36:51.788Z,92.99
2022-12-20T03:39:19.739Z,93.12
2022-12-20T03:41:52.719Z,92.82
2022-12-20T03:44:19.886Z,92.89
2022-12-20T03:46:47.824Z,92.91
2022-12-20T03:49:15.887Z,92.82
2022-12-20T03:51:47.757Z,92.86
2022-12-20T03:54:15.757Z,92.74
2022-12-20T03:57:06.124Z,92.71
2022-12-20T03:59:34.038Z,92.76
2022-12-20T04:02:07.882Z,92.82
2022-12-20T04:04:35.717Z,92.92
2022-12-20T04:07:03.847Z,92.80
2022-12-20T04:15:15.890Z,92.59
2022-12-20T04:18:07.689Z,92.33
2022-12-20T04:20:39.788Z,92.29
2022-12-20T04:23:17.723Z,92.56
2022-12-20T04:25:52.114Z,92.73
2022-12-20T04:28:25.731Z,92.75
2022-12-20T04:30:56.186Z,92.38
2022-12-20T04:33:27.307Z,92.38
2022-12-20T04:35:56.241Z,92.46
2022-12-20T04:38:30.018Z,92.32
2022-12-20T04:40:58.003Z,92.17
2022-12-20T04:43:32.870Z,92.04
2022-12-20T04:46:01.931Z,92.05
2022-12-20T04:48:55.667Z,91.80
2022-12-20T04:51:18.112Z,91.94
2022-12-20T04:53:49.069Z,92.11
2022-12-20T04:56:29.279Z,92.22
2022-12-20T04:59:10.968Z,92.23
2022-12-20T05:01:39.789Z,92.31
2022-12-20T05:04:17.719Z,92.25
2022-12-20T05:06:45.700Z,92.55
2022-12-20T05:09:37.745Z,92.44
2022-12-20T05:12:29.745Z,92.96
2022-12-20T05:18:13.773Z,93.05
2022-12-20T05:21:14.476Z,93.04
2022-12-20T05:24:08.459Z,92.82
2022-12-20T05:27:06.730Z,93.06
2022-12-20T05:29:33.762Z,93.17
2022-12-20T05:32:01.700Z,93.04
2022-12-20T05:37:49.846Z,93.32
2022-12-20T05:40:22.395Z,93.30
2022-12-20T05:42:49.721Z,93.53
2022-12-20T05:45:22.727Z,93.51
2022-12-20T05:50:48.013Z,93.67
2022-12-20T05:53:28.137Z,93.57
2022-12-20T05:56:21.717Z,93.41
2022-12-20T06:02:07.848Z,93.43
2022-12-20T06:04:38.365Z,93.53
2022-12-20T06:07:18.759Z,93.63
2022-12-20T06:12:57.757Z,93.47
2022-12-20T06:15:25.780Z,93.59
2022-12-20T06:17:58.893Z,93.51
2022-12-20T06:20:25.868Z,93.46
2022-12-20T06:22:53.934Z,93.43
2022-12-20T06:25:21.734Z,93.42
2022-12-20T06:27:54.826Z,93.30
2022-12-20T06:30:21.849Z,93.23
2022-12-20T06:33:07.166Z,93.55
2022-12-20T06:35:42.132Z,93.46
2022-12-20T06:38:37.338Z,93.30
2022-12-20T06:41:07.521Z,93.30
2022-12-20T06:43:36.884Z,93.39
2022-12-20T06:46:06.390Z,93.49
2022-12-20T06:48:38.759Z,93.69
2022-12-20T06:51:07.882Z,93.90
2022-12-20T06:53:35.760Z,94.00
2022-12-20T06:56:04.166Z,93.91
2022-12-20T06:58:37.733Z,93.83
2022-12-20T07:01:06.090Z,93.87
2022-12-20T07:03:37.875Z,93.85
2022-12-20T07:06:05.976Z,93.84
2022-12-20T07:08:33.760Z,93.93
2022-12-20T07:11:13.367Z,93.83
2022-12-20T07:13:41.705Z,94.14
2022-12-20T07:16:10.138Z,94.16
2022-12-20T07:18:43.747Z,94.31
2022-12-20T07:21:19.048Z,94.19
2022-12-20T07:23:47.611Z,94.18
2022-12-20T07:26:15.882Z,94.04
2022-12-20T07:28:43.830Z,94.12
2022-12-20T07:31:11.836Z,94.33
2022-12-20T07:33:40.090Z,94.43
2022-12-20T07:36:16.388Z,94.51
2022-12-20T07:38:43.962Z,94.51
2022-12-20T07:41:14.811Z,94.54
2022-12-20T07:43:42.654Z,94.53
2022-12-20T07:46:19.524Z,94.46
2022-12-20T07:48:47.699Z,94.60
2022-12-20T07:51:21.520Z,94.62
2022-12-20T07:54:06.764Z,94.47
2022-12-20T07:56:41.167Z,94.40
2022-12-20T07:59:12.437Z,94.50
2022-12-20T08:02:07.648Z,94.63
2022-12-20T08:04:35.810Z,94.69
2022-12-20T08:07:29.913Z,94.59
2022-12-20T08:10:01.971Z,94.54
2022-12-20T08:12:31.015Z,94.50
2022-12-20T08:14:58.394Z,94.50
2022-12-20T08:17:25.798Z,94.50
2022-12-20T08:19:53.732Z,94.55
2022-12-20T08:22:25.912Z,94.44
2022-12-20T08:24:53.715Z,94.42
2022-12-20T08:27:25.765Z,94.13
2022-12-20T08:29:53.804Z,93.92
2022-12-20T08:32:21.748Z,93.91
2022-12-20T08:34:49.837Z,94.12
2022-12-20T08:37:17.815Z,94.10
2022-12-20T08:39:45.776Z,93.85
2022-12-20T08:42:17.752Z,93.87
2022-12-20T08:44:45.885Z,93.82
2022-12-20T08:47:18.222Z,93.80
2022-12-20T08:49:47.894Z,93.91
2022-12-20T08:52:15.783Z,93.77
2022-12-20T08:55:12.759Z,93.88
2022-12-20T08:57:41.737Z,94.03
2022-12-20T09:00:11.264Z,93.94
2022-12-20T09:02:41.314Z,93.98
2022-12-20T09:05:10.154Z,93.89
2022-12-20T09:07:43.740Z,93.72
2022-12-20T09:10:37.598Z,93.73
2022-12-20T09:13:05.809Z,93.74
2022-12-20T09:15:35.304Z,93.78
2022-12-20T09:18:07.779Z,93.60
2022-12-20T09:20:35.747Z,93.56
2022-12-20T09:23:03.754Z,93.36
2022-12-20T09:25:33.154Z,93.42
2022-12-20T09:28:01.750Z,93.31
2022-12-20T09:30:29.732Z,93.08
2022-12-20T09:35:55.127Z,93.40
2022-12-20T09:38:21.755Z,93.42
2022-12-20T09:41:01.157Z,93.29
2022-12-20T09:43:30.279Z,93.33
2022-12-20T09:46:00.107Z,93.24
2022-12-20T09:48:40.505Z,93.39
2022-12-20T09:51:13.858Z,93.19
2022-12-20T09:54:07.111Z,93.06
2022-12-20T09:56:39.505Z,92.99
2022-12-20T09:59:14.829Z,92.97
2022-12-20T10:01:53.041Z,92.92
2022-12-20T10:04:19.907Z,92.98
2022-12-20T10:07:13.177Z,92.83
2022-12-20T10:10:14.764Z,92.87
2022-12-20T10:12:55.119Z,92.50
2022-12-20T10:15:28.649Z,92.82
2022-12-20T10:18:35.707Z,92.87
2022-12-20T10:21:24.298Z,93.15
2022-12-20T10:24:15.443Z,93.02
2022-12-20T10:26:43.916Z,93.05
2022-12-20T10:29:11.887Z,93.00
2022-12-20T10:32:18.755Z,92.92
2022-12-20T10:35:16.108Z,92.78
2022-12-20T10:38:17.436Z,92.87
2022-12-20T10:44:07.682Z,92.47
2022-12-20T10:46:42.147Z,92.34
2022-12-20T10:49:31.202Z,92.16
2022-12-20T10:52:03.918Z,92.26
2022-12-20T10:54:48.861Z,92.39
2022-12-20T10:57:24.731Z,92.28
2022-12-20T10:59:54.997Z,92.50
2022-12-20T11:02:38.953Z,92.29
2022-12-20T11:05:10.726Z,92.43
2022-12-20T11:11:18.718Z,92.06
2022-12-20T11:13:46.927Z,92.01
2022-12-20T11:16:31.452Z,92.05
2022-12-20T11:19:21.602Z,91.73
2022-12-20T11:22:05.924Z,91.88
2022-12-20T11:24:53.566Z,91.91
2022-12-20T11:27:41.745Z,91.14
2022-12-20T11:33:36.549Z,91.80
2022-12-20T11:39:03.662Z,91.47
2022-12-20T11:41:57.218Z,91.37
2022-12-20T11:45:09.328Z,91.41
2022-12-20T11:48:06.412Z,90.85
2022-12-20T11:50:43.762Z,91.13
2022-12-20T11:53:32.614Z,91.02
2022-12-20T11:56:57.119Z,90.84
2022-12-20T11:59:52.149Z,90.95
2022-12-20T12:02:29.805Z,90.83
2022-12-20T12:05:06.089Z,90.64
2022-12-20T12:08:06.035Z,90.80
2022-12-20T12:10:44.237Z,90.74
2022-12-20T12:13:18.966Z,90.45
2022-12-20T12:16:06.996Z,90.61
2022-12-20T12:18:42.130Z,90.63
2022-12-20T12:21:40.516Z,90.77
2022-12-20T12:24:14.321Z,90.27
2022-12-20T12:27:08.002Z,90.28
2022-12-20T12:30:05.300Z,90.04
2022-12-20T12:32:55.417Z,90.34
2022-12-20T12:35:55.063Z,90.36
2022-12-20T12:38:33.965Z,90.01
2022-12-20T12:41:27.116Z,90.39
2022-12-20T12:43:56.590Z,90.40
2022-12-20T12:46:35.924Z,90.81
2022-12-20T12:49:17.642Z,90.99
2022-12-20T12:54:47.834Z,91.13
2022-12-20T12:57:18.158Z,91.05
2022-12-20T12:59:48.575Z,91.44
2022-12-20T13:02:16.375Z,91.77
2022-12-20T13:04:58.937Z,91.74
2022-12-20T13:07:32.017Z,91.74
2022-12-20T13:10:06.862Z,92.00
2022-12-20T13:12:36.796Z,91.92
2022-12-20T13:15:28.783Z,91.99
2022-12-20T13:18:11.052Z,91.76
2022-12-20T13:20:39.837Z,91.72
2022-12-20T13:23:07.669Z,91.80
2022-12-20T13:25:48.569Z,91.76
2022-12-20T13:28:16.648Z,91.54
2022-12-20T13:30:50.632Z,91.68
2022-12-20T13:33:48.688Z,91.53
2022-12-20T13:37:25.755Z,91.65
2022-12-20T13:39:54.317Z,91.57
2022-12-20T13:42:21.661Z,91.69
2022-12-20T13:44:54.863Z,91.68
2022-12-20T13:48:06.357Z,91.56
2022-12-20T13:50:41.633Z,91.53
2022-12-20T13:53:19.993Z,91.31
2022-12-20T13:55:48.834Z,91.15
2022-12-20T13:58:27.714Z,91.26
2022-12-20T14:01:23.652Z,91.36
2022-12-20T14:03:53.231Z,91.37
2022-12-20T14:06:26.964Z,91.40
2022-12-20T14:08:55.731Z,91.53
2022-12-20T14:11:26.981Z,91.66
2022-12-20T14:14:01.035Z,91.65
2022-12-20T14:16:33.773Z,91.64
2022-12-20T14:19:13.054Z,91.54
2022-12-20T14:21:45.232Z,91.93
2022-12-20T14:24:20.007Z,92.10
2022-12-20T14:26:51.497Z,91.93
2022-12-20T14:32:28.058Z,91.73
2022-12-20T14:34:56.124Z,91.76
2022-12-20T14:37:23.697Z,91.78
2022-12-20T14:39:57.943Z,91.88
2022-12-20T14:42:35.569Z,91.76
2022-12-20T14:45:10.703Z,92.05
2022-12-20T14:47:53.172Z,92.13
2022-12-20T14:50:30.978Z,92.05
2022-12-20T14:53:04.014Z,91.99
2022-12-20T14:55:36.499Z,91.79
2022-12-20T14:58:35.034Z,92.02
2022-12-20T15:01:15.891Z,91.88
2022-12-20T15:06:54.972Z,91.78
2022-12-20T15:09:21.861Z,91.79
2022-12-20T15:11:51.703Z,91.98
2022-12-20T15:14:39.276Z,91.69
2022-12-20T15:17:14.491Z,91.67
2022-12-20T15:19:42.922Z,91.59
2022-12-20T15:22:17.916Z,91.80
2022-12-20T15:25:19.060Z,91.69
2022-12-20T15:27:45.727Z,91.75
2022-12-20T15:30:14.154Z,92.34
2022-12-20T15:32:54.671Z,92.14
2022-12-20T15:35:53.513Z,92.17
2022-12-20T15:38:40.919Z,92.06
2022-12-20T15:41:17.719Z,91.89
2022-12-20T15:43:58.828Z,91.83
2022-12-20T15:46:32.532Z,91.66
2022-12-20T15:49:30.296Z,91.79
2022-12-20T15:51:57.997Z,91.96
2022-12-20T15:54:27.697Z,91.89
2022-12-20T15:57:21.843Z,91.93
2022-12-20T16:02:49.714Z,92.38
2022-12-20T16:05:17.862Z,92.12
2022-12-20T16:07:45.896Z,91.99
2022-12-20T16:10:15.282Z,91.95
2022-12-20T16:12:43.876Z,91.78
2022-12-20T16:15:27.455Z,91.78
2022-12-20T16:18:21.727Z,91.99
2022-12-20T16:20:54.781Z,92.07
2022-12-20T16:23:24.536Z,91.96
2022-12-20T16:26:20.059Z,92.15
2022-12-20T16:28:48.812Z,92.16
2022-12-20T16:31:31.600Z,92.26
2022-12-20T16:34:05.019Z,92.06
2022-12-20T16:36:33.006Z,92.37
2022-12-20T16:38:59.973Z,92.43
2022-12-20T16:41:38.814Z,92.28
2022-12-20T16:44:06.772Z,92.33
2022-12-20T16:46:34.825Z,92.34
2022-12-20T16:49:32.782Z,92.20
2022-12-20T16:52:00.089Z,92.17
2022-12-20T16:54:27.854Z,92.63
2022-12-20T16:57:22.002Z,92.76
2022-12-20T16:59:49.796Z,92.75
2022-12-20T17:02:44.647Z,92.58
2022-12-20T17:05:44.510Z,92.83
2022-12-20T17:11:06.734Z,92.73
2022-12-20T17:13:33.778Z,92.82
2022-12-20T17:18:55.333Z,92.41
2022-12-20T17:21:23.768Z,92.32
2022-12-20T17:23:57.660Z,92.11
2022-12-20T17:26:28.133Z,92.24
2022-12-20T17:28:58.695Z,92.05
2022-12-20T17:31:34.316Z,92.09
2022-12-20T17:34:03.769Z,91.99
2022-12-20T17:36:37.799Z,92.11
2022-12-20T17:39:11.811Z,92.07
2022-12-20T17:41:40.179Z,92.01
2022-12-20T17:44:16.521Z,92.35
2022-12-20T17:46:50.248Z,92.21
2022-12-20T17:49:18.207Z,92.17
2022-12-20T17:51:46.766Z,92.23
2022-12-20T17:57:31.787Z,92.41
2022-12-20T18:00:04.142Z,92.96
2022-12-20T18:02:32.003Z,92.80
2022-12-20T18:04:59.745Z,92.37
2022-12-20T18:07:31.770Z,92.42
2022-12-20T18:10:00.164Z,92.28
2022-12-20T18:12:30.376Z,92.26
2022-12-20T18:15:02.290Z,92.19
2022-12-20T18:17:29.733Z,92.09
2022-12-20T18:19:57.847Z,92.48
2022-12-20T18:22:25.728Z,92.36
2022-12-20T18:24:58.217Z,92.64
2022-12-20T18:27:31.145Z,92.68
2022-12-20T18:29:59.704Z,92.77
2022-12-20T18:32:52.610Z,92.60
2022-12-20T18:35:19.730Z,92.81
2022-12-20T18:37:51.987Z,92.72
2022-12-20T18:40:19.706Z,92.68
2022-12-20T18:42:48.185Z,92.95
2022-12-20T18:45:41.794Z,92.91
2022-12-20T18:48:09.745Z,92.88
2022-12-20T18:53:37.289Z,92.89
2022-12-20T18:56:11.429Z,92.79
2022-12-20T19:01:34.415Z,92.82
2022-12-20T19:04:09.163Z,92.71
2022-12-20T19:06:38.700Z,92.78
2022-12-20T19:09:11.749Z,92.79
2022-12-20T19:11:40.674Z,92.70
2022-12-20T19:14:13.641Z,92.77
2022-12-20T19:16:41.826Z,92.86
2022-12-20T19:22:53.947Z,92.66
2022-12-20T19:25:25.862Z,92.57
2022-12-20T19:28:20.357Z,92.96
2022-12-20T19:30:54.066Z,92.65
2022-12-20T19:33:21.951Z,92.73
2022-12-20T19:35:56.106Z,92.79
2022-12-20T19:38:23.905Z,92.93
2022-12-20T19:40:53.821Z,92.91
2022-12-20T19:43:27.054Z,93.12
2022-12-20T19:45:56.199Z,93.10
2022-12-20T19:48:25.656Z,93.43
2022-12-20T19:51:12.460Z,93.68
2022-12-20T19:53:41.085Z,93.87
2022-12-20T19:56:17.454Z,93.72
2022-12-20T19:58:46.063Z,93.49
2022-12-20T20:01:40.377Z,93.67
2022-12-20T20:04:10.176Z,93.88
2022-12-20T20:06:44.095Z,93.55
2022-12-20T20:09:11.967Z,93.46
2022-12-20T20:11:40.026Z,93.57
2022-12-20T20:14:15.777Z,93.89
2022-12-20T20:16:44.158Z,93.88
2022-12-20T20:19:12.314Z,93.63
2022-12-20T20:21:44.911Z,93.53
2022-12-20T20:24:11.908Z,93.34
2022-12-20T20:26:40.079Z,93.33
2022-12-20T20:29:10.428Z,93.33
2022-12-20T20:34:30.621Z,93.29
2022-12-20T20:40:20.874Z,93.55
2022-12-20T20:42:47.734Z,93.70
2022-12-20T20:45:16.905Z,93.76
2022-12-20T20:50:38.292Z,93.98
2022-12-20T20:53:34.271Z,93.79
2022-12-20T20:56:05.984Z,93.62
2022-12-20T20:58:35.335Z,93.52
2022-12-20T21:01:08.462Z,93.71
2022-12-20T21:03:41.661Z,93.83
2022-12-20T21:06:39.035Z,93.40
2022-12-20T21:09:07.838Z,93.61
2022-12-20T21:11:37.013Z,94.18
2022-12-20T21:14:05.738Z,94.12
2022-12-20T21:16:45.433Z,94.12
2022-12-20T21:19:14.463Z,94.00
2022-12-20T21:21:41.811Z,93.82
2022-12-20T21:24:09.717Z,93.81
2022-12-20T21:26:37.902Z,93.93
2022-12-20T21:29:05.692Z,93.88
2022-12-20T21:31:33.887Z,93.67
2022-12-20T21:36:53.695Z,93.40
2022-12-20T21:42:13.802Z,93.61
2022-12-20T21:44:41.761Z,93.58
2022-12-20T21:47:11.191Z,93.59
2022-12-20T21:49:39.739Z,93.65
2022-12-20T21:52:07.929Z,93.94
2022-12-20T21:54:35.840Z,93.74
2022-12-20T21:57:03.886Z,93.72
2022-12-20T21:59:36.756Z,93.71
2022-12-20T22:02:05.115Z,93.54
2022-12-20T22:04:34.486Z,93.38
2022-12-20T22:07:01.731Z,93.73
2022-12-20T22:09:29.736Z,93.72
2022-12-20T22:12:21.703Z,93.49
2022-12-20T22:14:49.722Z,93.36
2022-12-20T22:17:17.726Z,93.37
2022-12-20T22:19:45.757Z,93.52
2022-12-20T22:22:19.065Z,93.28
2022-12-20T22:24:51.859Z,93.22
2022-12-20T22:27:19.803Z,93.45
2022-12-20T22:29:47.790Z,93.19
2022-12-20T22:32:15.861Z,93.40
2022-12-20T22:34:43.769Z,93.84
2022-12-20T22:37:11.729Z,93.76
2022-12-20T22:39:39.771Z,93.56
2022-12-20T22:42:11.837Z,93.35
2022-12-20T22:44:39.996Z,93.28
2022-12-20T22:47:08.312Z,93.26
2022-12-20T22:49:35.709Z,93.24
2022-12-20T22:52:07.625Z,93.35
2022-12-20T22:54:39.786Z,93.32
2022-12-20T22:57:10.337Z,93.17
2022-12-20T22:59:37.815Z,93.36
2022-12-20T23:02:06.159Z,93.17
2022-12-20T23:04:39.095Z,93.40
2022-12-20T23:07:07.321Z,93.14
2022-12-20T23:09:35.714Z,92.96
2022-12-20T23:12:32.827Z,93.07
2022-12-20T23:15:30.736Z,93.20
2022-12-20T23:17:58.450Z,93.13
2022-12-20T23:20:44.022Z,93.10
2022-12-20T23:23:11.735Z,93.62
2022-12-20T23:25:50.514Z,93.30
2022-12-20T23:28:23.716Z,93.11
2022-12-20T23:30:51.727Z,92.95
2022-12-20T23:33:19.720Z,93.27
2022-12-20T23:36:01.538Z,93.12
2022-12-20T23:38:34.391Z,93.47
2022-12-20T23:41:28.478Z,93.08
2022-12-20T23:44:26.841Z,92.94
2022-12-20T23:46:58.751Z,92.70
2022-12-20T23:49:25.850Z,92.62
2022-12-20T23:51:57.700Z,92.66
2022-12-20T23:54:25.819Z,92.90
2022-12-20T23:56:53.812Z,92.82
2022-12-20T23:59:21.850Z,92.80
